LFPB/LBG METAR and TAF weather

Enter ICAO airport designator
Station Type Date Time Source
LFPB METAR 2019/06/16 21:00 UTC NOAA

LFPB 162100Z AUTO 23004KT CAVOK 19/10 Q1021 NOSIG


Station Type Date Time Source
LFPB Decoded METAR 2019/06/16 21:00 UTC NOAA

Paris / Le Bourget, France (LFPB) 48-58N 002-27E 65M
Jun 16, 2019 - 05:00 PM EDT / 2019.06.16 2100 UTC
Wind: from the SW (230 degrees) at 5 MPH (4 KT):0
Visibility: greater than 7 mile(s):0
Temperature: 66 F (19 C)
Dew Point: 50 F (10 C)
Relative Humidity: 55%
Pressure (altimeter): 30.15 in. Hg (1021 hPa)
ob: LFPB 162100Z AUTO 23004KT CAVOK 19/10 Q1021 NOSIG
cycle: 21

Station Type Date Time Source
LFPB TAF 2019/06/16 18:21 UTC NOAA

TAF LFPB 161700Z 1618/1718 22010KT CAVOK
BECMG 1620/1622 15005KT

Example: see airport list